sensor_id;sensor_type;location;lat;lon;timestamp;pressure;altitude;pressure_sealevel;temperature;humidity
56456;BME280;42354;53.218;6.564;2023-05-14T00:00:50;46979.06;;;-142.92;100.00
56456;BME280;42354;53.218;6.564;2023-05-14T00:03:15;46991.38;;;-142.92;100.00
56456;BME280;42354;53.218;6.564;2023-05-14T00:05:41;46972.91;;;-142.92;100.00
56456;BME280;42354;53.218;6.564;2023-05-14T00:08:06;46977.03;;;-142.92;100.00
56456;BME280;42354;53.218;6.564;2023-05-14T00:10:32;46997.53;;;-142.92;100.00
56456;BME280;42354;53.218;6.564;2023-05-14T00:12:57;46983.19;;;-142.92;100.00
56456;BME280;42354;53.218;6.564;2023-05-14T00:15:23;46958.56;;;-142.92;100.00
56456;BME280;42354;53.218;6.564;2023-05-14T00:17:48;46983.19;;;-142.92;100.00
56456;BME280;42354;53.218;6.564;2023-05-14T00:20:13;46974.97;;;-142.92;100.00
56456;BME280;42354;53.218;6.564;2023-05-14T00:22:39;46966.75;;;-142.92;100.00
56456;BME280;42354;53.218;6.564;2023-05-14T00:25:06;46985.22;;;-142.92;100.00
56456;BME280;42354;53.218;6.564;2023-05-14T00:27:32;46972.91;;;-142.92;100.00
56456;BME280;42354;53.218;6.564;2023-05-14T00:29:58;46974.97;;;-142.92;100.00
56456;BME280;42354;53.218;6.564;2023-05-14T00:32:23;46968.81;;;-142.92;100.00
56456;BME280;42354;53.218;6.564;2023-05-14T00:34:48;46983.19;;;-142.92;100.00
56456;BME280;42354;53.218;6.564;2023-05-14T00:37:14;46968.81;;;-142.92;100.00
56456;BME280;42354;53.218;6.564;2023-05-14T00:39:39;46972.91;;;-142.92;100.00
56456;BME280;42354;53.218;6.564;2023-05-14T00:42:05;46979.06;;;-142.92;100.00
56456;BME280;42354;53.218;6.564;2023-05-14T00:44:31;46983.19;;;-142.92;100.00
56456;BME280;42354;53.218;6.564;2023-05-14T00:46:58;46972.91;;;-142.92;100.00
56456;BME280;42354;53.218;6.564;2023-05-14T00:49:24;46974.97;;;-142.92;100.00
56456;BME280;42354;53.218;6.564;2023-05-14T00:51:51;46968.81;;;-142.92;100.00
56456;BME280;42354;53.218;6.564;2023-05-14T00:54:17;46983.19;;;-142.92;100.00
56456;BME280;42354;53.218;6.564;2023-05-14T00:56:44;46970.88;;;-142.92;100.00
56456;BME280;42354;53.218;6.564;2023-05-14T00:59:11;46968.81;;;-142.92;100.00
56456;BME280;42354;53.218;6.564;2023-05-14T01:01:36;46981.13;;;-142.92;100.00
56456;BME280;42354;53.218;6.564;2023-05-14T01:04:02;46970.88;;;-142.92;100.00
56456;BME280;42354;53.218;6.564;2023-05-14T01:09:08;46972.91;;;-142.92;100.00
56456;BME280;42354;53.218;6.564;2023-05-14T01:14:21;46968.81;;;-142.92;100.00
56456;BME280;42354;53.218;6.564;2023-05-14T01:16:52;46970.88;;;-142.92;100.00
56456;BME280;42354;53.218;6.564;2023-05-14T01:19:41;46977.03;;;-142.92;100.00
56456;BME280;42354;53.218;6.564;2023-05-14T01:22:08;46972.91;;;-142.92;100.00
56456;BME280;42354;53.218;6.564;2023-05-14T01:24:33;46974.97;;;-142.92;100.00
56456;BME280;42354;53.218;6.564;2023-05-14T01:27:29;46970.88;;;-142.92;100.00
56456;BME280;42354;53.218;6.564;2023-05-14T01:30:03;46974.97;;;-142.92;100.00
56456;BME280;42354;53.218;6.564;2023-05-14T01:32:34;46979.06;;;-142.92;100.00
56456;BME280;42354;53.218;6.564;2023-05-14T01:35:01;46987.28;;;-142.92;100.00
56456;BME280;42354;53.218;6.564;2023-05-14T01:37:28;46974.97;;;-142.92;100.00
56456;BME280;42354;53.218;6.564;2023-05-14T01:39:55;46962.66;;;-142.92;100.00
56456;BME280;42354;53.218;6.564;2023-05-14T01:42:22;46966.75;;;-142.92;100.00
56456;BME280;42354;53.218;6.564;2023-05-14T01:44:47;46987.28;;;-142.92;100.00
56456;BME280;42354;53.218;6.564;2023-05-14T01:47:13;46979.06;;;-142.92;100.00
56456;BME280;42354;53.218;6.564;2023-05-14T01:49:38;46970.88;;;-142.92;100.00
56456;BME280;42354;53.218;6.564;2023-05-14T01:52:04;46987.28;;;-142.92;100.00
56456;BME280;42354;53.218;6.564;2023-05-14T01:54:29;46979.06;;;-142.92;100.00
56456;BME280;42354;53.218;6.564;2023-05-14T01:56:54;46989.34;;;-142.92;100.00
56456;BME280;42354;53.218;6.564;2023-05-14T01:59:20;46970.88;;;-142.92;100.00
56456;BME280;42354;53.218;6.564;2023-05-14T02:01:45;46974.97;;;-142.92;100.00
56456;BME280;42354;53.218;6.564;2023-05-14T02:04:11;46979.06;;;-142.92;100.00
56456;BME280;42354;53.218;6.564;2023-05-14T02:06:36;46974.97;;;-142.92;100.00
56456;BME280;42354;53.218;6.564;2023-05-14T02:09:02;46979.06;;;-142.92;100.00
56456;BME280;42354;53.218;6.564;2023-05-14T02:11:28;46974.97;;;-142.92;100.00
56456;BME280;42354;53.218;6.564;2023-05-14T02:13:53;46983.19;;;-142.92;100.00
56456;BME280;42354;53.218;6.564;2023-05-14T02:16:18;46979.06;;;-142.92;100.00
56456;BME280;42354;53.218;6.564;2023-05-14T02:18:44;46966.75;;;-142.92;100.00
56456;BME280;42354;53.218;6.564;2023-05-14T02:21:09;46981.13;;;-142.92;100.00
56456;BME280;42354;53.218;6.564;2023-05-14T02:23:35;46974.97;;;-142.92;100.00
56456;BME280;42354;53.218;6.564;2023-05-14T02:26:00;46991.38;;;-142.92;100.00
56456;BME280;42354;53.218;6.564;2023-05-14T02:28:25;46979.06;;;-142.92;100.00
56456;BME280;42354;53.218;6.564;2023-05-14T02:30:51;46974.97;;;-142.92;100.00
56456;BME280;42354;53.218;6.564;2023-05-14T02:33:16;46997.53;;;-142.92;100.00
56456;BME280;42354;53.218;6.564;2023-05-14T02:35:42;46983.19;;;-142.92;100.00
56456;BME280;42354;53.218;6.564;2023-05-14T02:38:07;46962.66;;;-142.92;100.00
56456;BME280;42354;53.218;6.564;2023-05-14T02:40:32;46983.19;;;-142.92;100.00
56456;BME280;42354;53.218;6.564;2023-05-14T02:42:58;46983.19;;;-142.92;100.00
56456;BME280;42354;53.218;6.564;2023-05-14T02:45:23;46985.22;;;-142.92;100.00
56456;BME280;42354;53.218;6.564;2023-05-14T02:47:49;46962.66;;;-142.92;100.00
56456;BME280;42354;53.218;6.564;2023-05-14T02:50:14;46987.28;;;-142.92;100.00
56456;BME280;42354;53.218;6.564;2023-05-14T02:52:40;46970.88;;;-142.92;100.00
56456;BME280;42354;53.218;6.564;2023-05-14T02:55:05;47007.81;;;-142.92;100.00
56456;BME280;42354;53.218;6.564;2023-05-14T02:57:32;46987.28;;;-142.92;100.00
56456;BME280;42354;53.218;6.564;2023-05-14T02:59:57;46991.38;;;-142.92;100.00
56456;BME280;42354;53.218;6.564;2023-05-14T03:02:23;46987.28;;;-142.92;100.00
56456;BME280;42354;53.218;6.564;2023-05-14T03:04:48;46987.28;;;-142.92;100.00
56456;BME280;42354;53.218;6.564;2023-05-14T03:07:14;46974.97;;;-142.92;100.00
56456;BME280;42354;53.218;6.564;2023-05-14T03:09:39;47001.66;;;-142.92;100.00
56456;BME280;42354;53.218;6.564;2023-05-14T03:12:06;46974.97;;;-142.92;100.00
56456;BME280;42354;53.218;6.564;2023-05-14T03:14:32;46981.13;;;-142.92;100.00
56456;BME280;42354;53.218;6.564;2023-05-14T03:16:57;46991.38;;;-142.92;100.00
56456;BME280;42354;53.218;6.564;2023-05-14T03:19:22;46987.28;;;-142.92;100.00
56456;BME280;42354;53.218;6.564;2023-05-14T03:21:48;46999.59;;;-142.92;100.00
56456;BME280;42354;53.218;6.564;2023-05-14T03:24:14;46991.38;;;-142.92;100.00
56456;BME280;42354;53.218;6.564;2023-05-14T03:26:39;46991.38;;;-142.92;100.00
56456;BME280;42354;53.218;6.564;2023-05-14T03:29:05;46974.97;;;-142.92;100.00
56456;BME280;42354;53.218;6.564;2023-05-14T03:31:30;46985.22;;;-142.92;100.00
56456;BME280;42354;53.218;6.564;2023-05-14T03:33:56;46983.19;;;-142.92;100.00
56456;BME280;42354;53.218;6.564;2023-05-14T03:36:21;46985.22;;;-142.92;100.00
56456;BME280;42354;53.218;6.564;2023-05-14T03:38:46;46985.22;;;-142.92;100.00
56456;BME280;42354;53.218;6.564;2023-05-14T03:41:12;46981.13;;;-142.92;100.00
56456;BME280;42354;53.218;6.564;2023-05-14T03:43:37;46974.97;;;-142.92;100.00
56456;BME280;42354;53.218;6.564;2023-05-14T03:46:02;46995.50;;;-142.92;100.00
56456;BME280;42354;53.218;6.564;2023-05-14T03:48:28;46997.53;;;-142.92;100.00
56456;BME280;42354;53.218;6.564;2023-05-14T03:50:53;46977.03;;;-142.92;100.00
56456;BME280;42354;53.218;6.564;2023-05-14T03:53:19;46968.81;;;-142.92;100.00
56456;BME280;42354;53.218;6.564;2023-05-14T03:55:44;47009.84;;;-142.92;100.00
56456;BME280;42354;53.218;6.564;2023-05-14T03:58:09;46972.91;;;-142.92;100.00
56456;BME280;42354;53.218;6.564;2023-05-14T04:00:40;46958.56;;;-142.92;100.00
56456;BME280;42354;53.218;6.564;2023-05-14T04:03:05;46974.97;;;-142.92;100.00
56456;BME280;42354;53.218;6.564;2023-05-14T04:05:31;46987.28;;;-142.92;100.00
56456;BME280;42354;53.218;6.564;2023-05-14T04:07:56;46981.13;;;-142.92;100.00
56456;BME280;42354;53.218;6.564;2023-05-14T04:10:22;46974.97;;;-142.92;100.00
56456;BME280;42354;53.218;6.564;2023-05-14T04:12:47;46997.53;;;-142.92;100.00
56456;BME280;42354;53.218;6.564;2023-05-14T04:15:13;46974.97;;;-142.92;100.00
56456;BME280;42354;53.218;6.564;2023-05-14T04:17:38;47001.66;;;-142.92;100.00
56456;BME280;42354;53.218;6.564;2023-05-14T04:20:04;46987.28;;;-142.92;100.00
56456;BME280;42354;53.218;6.564;2023-05-14T04:22:30;46970.88;;;-142.92;100.00
56456;BME280;42354;53.218;6.564;2023-05-14T04:24:56;46974.97;;;-142.92;100.00
56456;BME280;42354;53.218;6.564;2023-05-14T04:27:21;46974.97;;;-142.92;100.00
56456;BME280;42354;53.218;6.564;2023-05-14T04:29:48;46995.50;;;-142.92;100.00
56456;BME280;42354;53.218;6.564;2023-05-14T04:32:13;46983.19;;;-142.92;100.00
56456;BME280;42354;53.218;6.564;2023-05-14T04:34:39;46962.66;;;-142.92;100.00
56456;BME280;42354;53.218;6.564;2023-05-14T04:37:04;46979.06;;;-142.92;100.00
56456;BME280;42354;53.218;6.564;2023-05-14T04:39:29;46987.28;;;-142.92;100.00
56456;BME280;42354;53.218;6.564;2023-05-14T04:41:55;46995.50;;;-142.92;100.00
56456;BME280;42354;53.218;6.564;2023-05-14T04:44:20;46991.38;;;-142.92;100.00
56456;BME280;42354;53.218;6.564;2023-05-14T04:46:45;46991.38;;;-142.92;100.00
56456;BME280;42354;53.218;6.564;2023-05-14T04:49:11;46999.59;;;-142.92;100.00
56456;BME280;42354;53.218;6.564;2023-05-14T04:51:36;46991.38;;;-142.92;100.00
56456;BME280;42354;53.218;6.564;2023-05-14T04:54:02;46991.38;;;-142.92;100.00
56456;BME280;42354;53.218;6.564;2023-05-14T04:56:27;46981.13;;;-142.92;100.00
56456;BME280;42354;53.218;6.564;2023-05-14T04:58:53;46974.97;;;-142.92;100.00
56456;BME280;42354;53.218;6.564;2023-05-14T05:01:18;46989.34;;;-142.92;100.00
56456;BME280;42354;53.218;6.564;2023-05-14T05:03:44;46979.06;;;-142.92;100.00
56456;BME280;42354;53.218;6.564;2023-05-14T05:06:09;47005.75;;;-142.92;100.00
56456;BME280;42354;53.218;6.564;2023-05-14T05:08:35;46987.28;;;-142.92;100.00
56456;BME280;42354;53.218;6.564;2023-05-14T05:11:01;46989.34;;;-142.92;100.00
56456;BME280;42354;53.218;6.564;2023-05-14T05:13:26;47003.69;;;-142.92;100.00
56456;BME280;42354;53.218;6.564;2023-05-14T05:15:51;46995.50;;;-142.92;100.00
56456;BME280;42354;53.218;6.564;2023-05-14T05:18:17;46989.34;;;-142.92;100.00
56456;BME280;42354;53.218;6.564;2023-05-14T05:20:42;46989.34;;;-142.92;100.00
56456;BME280;42354;53.218;6.564;2023-05-14T05:23:07;47003.69;;;-142.92;100.00
56456;BME280;42354;53.218;6.564;2023-05-14T05:25:33;46987.28;;;-142.92;100.00
56456;BME280;42354;53.218;6.564;2023-05-14T05:27:58;46995.50;;;-142.92;100.00
56456;BME280;42354;53.218;6.564;2023-05-14T05:30:23;46997.53;;;-142.92;100.00
56456;BME280;42354;53.218;6.564;2023-05-14T05:32:49;46983.19;;;-142.92;100.00
56456;BME280;42354;53.218;6.564;2023-05-14T05:35:14;46985.22;;;-142.92;100.00
56456;BME280;42354;53.218;6.564;2023-05-14T05:37:41;46999.59;;;-142.92;100.00
56456;BME280;42354;53.218;6.564;2023-05-14T05:40:07;46987.28;;;-142.92;100.00
56456;BME280;42354;53.218;6.564;2023-05-14T05:42:34;46991.38;;;-142.92;100.00
56456;BME280;42354;53.218;6.564;2023-05-14T05:44:59;46977.03;;;-142.92;100.00
56456;BME280;42354;53.218;6.564;2023-05-14T05:47:25;46995.50;;;-142.92;100.00
56456;BME280;42354;53.218;6.564;2023-05-14T05:49:50;47003.69;;;-142.92;100.00
56456;BME280;42354;53.218;6.564;2023-05-14T05:52:15;47007.81;;;-142.92;100.00
56456;BME280;42354;53.218;6.564;2023-05-14T05:54:41;46997.53;;;-142.92;100.00
56456;BME280;42354;53.218;6.564;2023-05-14T05:57:07;46983.19;;;-142.92;100.00
56456;BME280;42354;53.218;6.564;2023-05-14T05:59:33;47003.69;;;-142.92;100.00
56456;BME280;42354;53.218;6.564;2023-05-14T06:01:58;46972.91;;;-142.92;100.00
56456;BME280;42354;53.218;6.564;2023-05-14T06:04:23;46997.53;;;-142.92;100.00
56456;BME280;42354;53.218;6.564;2023-05-14T06:06:49;46991.38;;;-142.92;100.00
56456;BME280;42354;53.218;6.564;2023-05-14T06:09:14;46991.38;;;-142.92;100.00
56456;BME280;42354;53.218;6.564;2023-05-14T06:11:40;47001.66;;;-142.92;100.00
56456;BME280;42354;53.218;6.564;2023-05-14T06:14:05;46985.22;;;-142.92;100.00
56456;BME280;42354;53.218;6.564;2023-05-14T06:16:31;47005.75;;;-142.92;100.00
56456;BME280;42354;53.218;6.564;2023-05-14T06:18:56;46989.34;;;-142.92;100.00
56456;BME280;42354;53.218;6.564;2023-05-14T06:21:22;46974.97;;;-142.92;100.00
56456;BME280;42354;53.218;6.564;2023-05-14T06:23:47;46991.38;;;-142.92;100.00
56456;BME280;42354;53.218;6.564;2023-05-14T06:26:13;46993.44;;;-142.92;100.00
56456;BME280;42354;53.218;6.564;2023-05-14T06:28:38;46995.50;;;-142.92;100.00
56456;BME280;42354;53.218;6.564;2023-05-14T06:31:03;46999.59;;;-142.92;100.00
56456;BME280;42354;53.218;6.564;2023-05-14T06:33:29;46995.50;;;-142.92;98.92
56456;BME280;42354;53.218;6.564;2023-05-14T06:35:59;46999.59;;;-142.92;93.78
56456;BME280;42354;53.218;6.564;2023-05-14T06:38:25;46999.59;;;-142.92;92.26
56456;BME280;42354;53.218;6.564;2023-05-14T06:40:50;46983.19;;;-142.92;89.85
56456;BME280;42354;53.218;6.564;2023-05-14T06:43:17;46995.50;;;-142.92;87.35
56456;BME280;42354;53.218;6.564;2023-05-14T06:45:42;46989.34;;;-142.92;85.85
56456;BME280;42354;53.218;6.564;2023-05-14T06:48:08;46981.13;;;-142.92;84.64
56456;BME280;42354;53.218;6.564;2023-05-14T06:50:34;46997.53;;;-142.92;83.79
56456;BME280;42354;53.218;6.564;2023-05-14T06:53:00;46985.22;;;-142.92;83.33
56456;BME280;42354;53.218;6.564;2023-05-14T06:55:25;46985.22;;;-142.92;82.12
56456;BME280;42354;53.218;6.564;2023-05-14T06:57:50;46987.28;;;-142.92;80.10
56456;BME280;42354;53.218;6.564;2023-05-14T07:00:16;46989.34;;;-142.92;79.78
56456;BME280;42354;53.218;6.564;2023-05-14T07:02:42;46999.59;;;-142.92;80.39
56456;BME280;42354;53.218;6.564;2023-05-14T07:05:07;46983.19;;;-142.92;81.12
56456;BME280;42354;53.218;6.564;2023-05-14T07:07:33;46987.28;;;-142.92;81.78
56456;BME280;42354;53.218;6.564;2023-05-14T07:09:58;46995.50;;;-142.92;82.53
56456;BME280;42354;53.218;6.564;2023-05-14T07:12:24;46979.06;;;-142.92;83.10
56456;BME280;42354;53.218;6.564;2023-05-14T07:14:49;46995.50;;;-142.92;83.93
56456;BME280;42354;53.218;6.564;2023-05-14T07:17:15;46979.06;;;-142.92;84.42
56456;BME280;42354;53.218;6.564;2023-05-14T07:19:40;46981.13;;;-142.92;84.34
56456;BME280;42354;53.218;6.564;2023-05-14T07:22:06;46981.13;;;-142.92;85.08
56456;BME280;42354;53.218;6.564;2023-05-14T07:24:31;46981.13;;;-142.92;84.24
56456;BME280;42354;53.218;6.564;2023-05-14T07:26:56;46985.22;;;-142.92;83.17
56456;BME280;42354;53.218;6.564;2023-05-14T07:29:22;46974.97;;;-142.92;82.65
56456;BME280;42354;53.218;6.564;2023-05-14T07:31:49;46983.19;;;-142.92;82.17
56456;BME280;42354;53.218;6.564;2023-05-14T07:34:15;46991.38;;;-142.92;81.97
56456;BME280;42354;53.218;6.564;2023-05-14T07:36:40;46997.53;;;-142.92;81.54
56456;BME280;42354;53.218;6.564;2023-05-14T07:39:06;47007.81;;;-142.92;81.93
56456;BME280;42354;53.218;6.564;2023-05-14T07:41:32;46991.38;;;-142.92;82.03
56456;BME280;42354;53.218;6.564;2023-05-14T07:43:57;46987.28;;;-142.92;82.36
56456;BME280;42354;53.218;6.564;2023-05-14T07:46:22;46991.38;;;-142.92;83.03
56456;BME280;42354;53.218;6.564;2023-05-14T07:48:49;46985.22;;;-142.92;84.41
56456;BME280;42354;53.218;6.564;2023-05-14T07:51:15;46979.06;;;-142.92;85.06
56456;BME280;42354;53.218;6.564;2023-05-14T07:53:40;46960.59;;;-142.92;85.67
56456;BME280;42354;53.218;6.564;2023-05-14T07:56:06;46987.28;;;-142.92;85.27
56456;BME280;42354;53.218;6.564;2023-05-14T07:58:31;46993.44;;;-142.92;84.68
56456;BME280;42354;53.218;6.564;2023-05-14T08:00:57;46987.28;;;-142.92;85.35
56456;BME280;42354;53.218;6.564;2023-05-14T08:03:22;46993.44;;;-142.92;86.56
56456;BME280;42354;53.218;6.564;2023-05-14T08:05:48;46987.28;;;-142.92;87.69
56456;BME280;42354;53.218;6.564;2023-05-14T08:08:13;46974.97;;;-142.92;87.74
56456;BME280;42354;53.218;6.564;2023-05-14T08:10:38;46983.19;;;-142.92;87.17
56456;BME280;42354;53.218;6.564;2023-05-14T08:13:04;46993.44;;;-142.92;85.93
56456;BME280;42354;53.218;6.564;2023-05-14T08:15:29;46983.19;;;-142.92;84.33
56456;BME280;42354;53.218;6.564;2023-05-14T08:17:55;46991.38;;;-142.92;82.30
56456;BME280;42354;53.218;6.564;2023-05-14T08:20:20;46991.38;;;-142.92;80.83
56456;BME280;42354;53.218;6.564;2023-05-14T08:22:46;46977.03;;;-142.92;79.20
56456;BME280;42354;53.218;6.564;2023-05-14T08:25:12;46989.34;;;-142.92;77.70
56456;BME280;42354;53.218;6.564;2023-05-14T08:27:37;46985.22;;;-142.92;76.39
56456;BME280;42354;53.218;6.564;2023-05-14T08:30:03;46981.13;;;-142.92;74.63
56456;BME280;42354;53.218;6.564;2023-05-14T08:32:29;46979.06;;;-142.92;72.92
56456;BME280;42354;53.218;6.564;2023-05-14T08:34:54;46983.19;;;-142.92;71.98
56456;BME280;42354;53.218;6.564;2023-05-14T08:37:19;46995.50;;;-142.92;70.22
56456;BME280;42354;53.218;6.564;2023-05-14T08:39:45;46985.22;;;-142.92;70.39
56456;BME280;42354;53.218;6.564;2023-05-14T08:42:11;46985.22;;;-142.92;70.75
56456;BME280;42354;53.218;6.564;2023-05-14T08:44:40;46966.75;;;-142.92;69.91
56456;BME280;42354;53.218;6.564;2023-05-14T08:47:10;46987.28;;;-142.92;67.44
56456;BME280;42354;53.218;6.564;2023-05-14T08:49:41;46983.19;;;-142.92;64.68
56456;BME280;42354;53.218;6.564;2023-05-14T08:52:10;46987.28;;;-142.92;65.18
56456;BME280;42354;53.218;6.564;2023-05-14T08:54:36;46983.19;;;-142.92;65.14
56456;BME280;42354;53.218;6.564;2023-05-14T08:57:03;46977.03;;;-142.92;65.20
56456;BME280;42354;53.218;6.564;2023-05-14T08:59:29;46991.38;;;-142.92;65.40
56456;BME280;42354;53.218;6.564;2023-05-14T09:01:55;46987.28;;;-142.92;64.21
56456;BME280;42354;53.218;6.564;2023-05-14T09:04:23;46985.22;;;-142.92;64.94
56456;BME280;42354;53.218;6.564;2023-05-14T09:06:51;46977.03;;;-142.92;64.11
56456;BME280;42354;53.218;6.564;2023-05-14T09:09:21;46983.19;;;-142.92;63.78
56456;BME280;42354;53.218;6.564;2023-05-14T09:11:48;46981.13;;;-142.92;62.27
56456;BME280;42354;53.218;6.564;2023-05-14T09:14:14;47001.66;;;-142.92;62.58
56456;BME280;42354;53.218;6.564;2023-05-14T09:16:40;46997.53;;;-142.92;63.47
56456;BME280;42354;53.218;6.564;2023-05-14T09:19:08;46981.13;;;-142.92;62.97
56456;BME280;42354;53.218;6.564;2023-05-14T09:21:34;46983.19;;;-142.92;62.14
56456;BME280;42354;53.218;6.564;2023-05-14T09:24:00;46970.88;;;-142.92;63.67
56456;BME280;42354;53.218;6.564;2023-05-14T09:26:27;46974.97;;;-142.92;63.48
56456;BME280;42354;53.218;6.564;2023-05-14T09:28:57;46970.88;;;-142.92;61.94
56456;BME280;42354;53.218;6.564;2023-05-14T09:31:29;46981.13;;;-142.92;60.75
56456;BME280;42354;53.218;6.564;2023-05-14T09:33:55;46991.38;;;-142.92;58.38
56456;BME280;42354;53.218;6.564;2023-05-14T09:36:20;46985.22;;;-142.92;56.88
56456;BME280;42354;53.218;6.564;2023-05-14T09:38:46;46977.03;;;-142.92;55.68
56456;BME280;42354;53.218;6.564;2023-05-14T09:41:11;46989.34;;;-142.92;55.82
56456;BME280;42354;53.218;6.564;2023-05-14T09:43:37;46979.06;;;-142.92;54.11
56456;BME280;42354;53.218;6.564;2023-05-14T09:46:02;46979.06;;;-142.92;52.46
56456;BME280;42354;53.218;6.564;2023-05-14T09:48:29;46987.28;;;-142.92;52.62
56456;BME280;42354;53.218;6.564;2023-05-14T09:50:54;46974.97;;;-142.92;52.25
56456;BME280;42354;53.218;6.564;2023-05-14T09:53:20;46979.06;;;-142.92;50.89
56456;BME280;42354;53.218;6.564;2023-05-14T09:55:47;46987.28;;;-142.92;49.77
56456;BME280;42354;53.218;6.564;2023-05-14T09:58:13;46979.06;;;-142.92;48.65
56456;BME280;42354;53.218;6.564;2023-05-14T10:00:43;46987.28;;;-142.92;47.22
56456;BME280;42354;53.218;6.564;2023-05-14T10:03:12;46981.13;;;-142.92;46.65
56456;BME280;42354;53.218;6.564;2023-05-14T10:05:39;46981.13;;;-142.92;46.71
56456;BME280;42354;53.218;6.564;2023-05-14T10:08:12;46979.06;;;-142.92;46.40
56456;BME280;42354;53.218;6.564;2023-05-14T10:10:38;46981.13;;;-142.92;45.81
56456;BME280;42354;53.218;6.564;2023-05-14T10:13:08;46987.28;;;-142.92;44.44
56456;BME280;42354;53.218;6.564;2023-05-14T10:15:47;46981.13;;;-142.92;43.78
56456;BME280;42354;53.218;6.564;2023-05-14T10:18:18;46958.56;;;-142.92;42.11
56456;BME280;42354;53.218;6.564;2023-05-14T10:21:01;46983.19;;;-142.92;42.27
56456;BME280;42354;53.218;6.564;2023-05-14T10:23:28;46970.88;;;-142.92;43.74
56456;BME280;42354;53.218;6.564;2023-05-14T10:25:54;46958.56;;;-142.92;44.48
56456;BME280;42354;53.218;6.564;2023-05-14T10:28:19;46977.03;;;-142.92;46.32
56456;BME280;42354;53.218;6.564;2023-05-14T10:30:45;46974.97;;;-142.92;46.72
56456;BME280;42354;53.218;6.564;2023-05-14T10:33:14;46981.13;;;-142.92;46.75
56456;BME280;42354;53.218;6.564;2023-05-14T10:36:00;46972.91;;;-142.92;46.42
56456;BME280;42354;53.218;6.564;2023-05-14T10:38:27;46970.88;;;-142.92;46.03
56456;BME280;42354;53.218;6.564;2023-05-14T10:41:13;46979.06;;;-142.92;43.93
56456;BME280;42354;53.218;6.564;2023-05-14T10:43:46;46983.19;;;-142.92;42.62
56456;BME280;42354;53.218;6.564;2023-05-14T10:46:13;46979.06;;;-142.92;41.73
56456;BME280;42354;53.218;6.564;2023-05-14T10:48:41;46979.06;;;-142.92;39.58
56456;BME280;42354;53.218;6.564;2023-05-14T10:51:10;46997.53;;;-142.92;37.16
56456;BME280;42354;53.218;6.564;2023-05-14T10:53:38;46985.22;;;-142.92;36.08
56456;BME280;42354;53.218;6.564;2023-05-14T10:56:08;46977.03;;;-142.92;35.03
56456;BME280;42354;53.218;6.564;2023-05-14T10:58:39;46977.03;;;-142.92;35.18
56456;BME280;42354;53.218;6.564;2023-05-14T11:01:09;46979.06;;;-142.92;34.51
56456;BME280;42354;53.218;6.564;2023-05-14T11:03:52;46979.06;;;-142.92;33.93
56456;BME280;42354;53.218;6.564;2023-05-14T11:06:19;46977.03;;;-142.92;33.71
56456;BME280;42354;53.218;6.564;2023-05-14T11:08:46;46960.59;;;-142.92;33.44
56456;BME280;42354;53.218;6.564;2023-05-14T11:11:16;46983.19;;;-142.92;32.93
56456;BME280;42354;53.218;6.564;2023-05-14T11:13:43;46970.88;;;-142.92;32.20
56456;BME280;42354;53.218;6.564;2023-05-14T11:16:09;46977.03;;;-142.92;31.83
56456;BME280;42354;53.218;6.564;2023-05-14T11:18:34;46983.19;;;-142.92;31.46
56456;BME280;42354;53.218;6.564;2023-05-14T11:21:05;46977.03;;;-142.92;31.34
56456;BME280;42354;53.218;6.564;2023-05-14T11:23:30;46989.34;;;-142.92;31.21
56456;BME280;42354;53.218;6.564;2023-05-14T11:25:56;46972.91;;;-142.92;31.12
56456;BME280;42354;53.218;6.564;2023-05-14T11:28:24;46979.06;;;-142.92;30.86
56456;BME280;42354;53.218;6.564;2023-05-14T11:30:51;46970.88;;;-142.92;30.48
56456;BME280;42354;53.218;6.564;2023-05-14T11:33:18;46974.97;;;-142.92;30.52
56456;BME280;42354;53.218;6.564;2023-05-14T11:35:44;46974.97;;;-142.92;30.17
56456;BME280;42354;53.218;6.564;2023-05-14T11:38:18;46979.06;;;-142.92;29.64
56456;BME280;42354;53.218;6.564;2023-05-14T11:40:54;46977.03;;;-142.92;29.28
56456;BME280;42354;53.218;6.564;2023-05-14T11:43:20;46974.97;;;-142.92;30.55
56456;BME280;42354;53.218;6.564;2023-05-14T11:45:54;46974.97;;;-142.92;30.98
56456;BME280;42354;53.218;6.564;2023-05-14T11:48:20;46979.06;;;-142.92;31.30
56456;BME280;42354;53.218;6.564;2023-05-14T11:50:47;46970.88;;;-142.92;31.30
56456;BME280;42354;53.218;6.564;2023-05-14T11:53:24;46983.19;;;-142.92;30.86
56456;BME280;42354;53.218;6.564;2023-05-14T11:55:51;46972.91;;;-142.92;30.59
56456;BME280;42354;53.218;6.564;2023-05-14T11:58:18;46981.13;;;-142.92;30.43
56456;BME280;42354;53.218;6.564;2023-05-14T12:49:31;46968.81;;;-142.92;27.43
56456;BME280;42354;53.218;6.564;2023-05-14T12:51:56;46964.72;;;-142.92;27.77
56456;BME280;42354;53.218;6.564;2023-05-14T12:54:22;46979.06;;;-142.92;27.59
56456;BME280;42354;53.218;6.564;2023-05-14T12:56:48;46970.88;;;-142.92;27.68
56456;BME280;42354;53.218;6.564;2023-05-14T12:59:13;46968.81;;;-142.92;27.61
56456;BME280;42354;53.218;6.564;2023-05-14T13:01:39;46972.91;;;-142.92;27.61
56456;BME280;42354;53.218;6.564;2023-05-14T13:04:05;46974.97;;;-142.92;27.60
56456;BME280;42354;53.218;6.564;2023-05-14T13:06:31;46972.91;;;-142.92;27.56
56456;BME280;42354;53.218;6.564;2023-05-14T13:08:56;46962.66;;;-142.92;27.66
56456;BME280;42354;53.218;6.564;2023-05-14T13:11:24;46958.56;;;-142.92;27.22
56456;BME280;42354;53.218;6.564;2023-05-14T13:13:53;46968.81;;;-142.92;27.18
56456;BME280;42354;53.218;6.564;2023-05-14T13:16:19;46970.88;;;-142.92;27.19
56456;BME280;42354;53.218;6.564;2023-05-14T13:18:44;46958.56;;;-142.92;27.46
56456;BME280;42354;53.218;6.564;2023-05-14T13:21:10;46974.97;;;-142.92;27.54
56456;BME280;42354;53.218;6.564;2023-05-14T13:23:37;46968.81;;;-142.92;27.51
56456;BME280;42354;53.218;6.564;2023-05-14T13:26:02;46966.75;;;-142.92;27.11